< Cyclone 201513 2015 Season Cyclone 201516 >
Cyclone 201514 (Marcia)
General InformationTrack Information on Google MapsDetailed Wind InformationList of All Images || ResourceGoogle EarthGE AnimationAtom FeedGeoJSON
Detalied Best Track (Time Zone = UTC)
Year Month Day Hour Lat. Long. Pressure (hPa) Wind (kt) Class Image Chart
2015 2 16 06 -14.9 152.3 1000 20 2 Image --
2015 2 16 12 -14.5 153.9 1000 20 2 Image --
2015 2 16 18 -14.2 155.0 1000 25 2 Image --
2015 2 17 00 -14.3 155.5 1000 25 2 Image --
2015 2 17 06 -14.7 155.6 999 25 2 Image --
2015 2 17 12 -15.1 156.1 999 30 2 Image --
2015 2 17 18 -15.5 156.1 996 30 2 Image --
2015 2 18 00 -16.3 155.8 996 35 3 Image --
2015 2 18 06 -17.1 155.3 995 35 3 Image --
2015 2 18 12 -18.0 154.3 990 50 4 Image --
2015 2 18 18 -19.0 153.2 989 50 4 Image --
2015 2 19 00 -19.9 152.0 979 65 5 Image --
2015 2 19 06 -20.5 150.9 948 95 5 Image --
2015 2 19 12 -20.8 150.5 938 105 5 Image --
2015 2 19 18 -21.5 150.5 932 110 5 Image --
2015 2 20 00 -22.7 150.5 935 110 5 Image --
2015 2 20 03 -23.1 150.5 969 80 5 Image --
2015 2 20 06 -23.7 150.6 980 55 4 Image --
2015 2 20 12 -24.5 151.3 994 30 2 Image --
2015 2 20 18 -25.3 151.8 999 25 2 Image --
< Cyclone 201513 2015 Season Cyclone 201516 >

Help